createdAt,value
2022-10-18T00:02:14.680Z,16.80
2022-10-18T00:04:43.322Z,16.70
2022-10-18T00:07:11.971Z,16.70
2022-10-18T00:09:40.754Z,16.70
2022-10-18T00:12:09.477Z,16.70
2022-10-18T00:14:39.462Z,16.60
2022-10-18T00:17:07.983Z,16.60
2022-10-18T00:19:36.574Z,16.60
2022-10-18T00:22:05.255Z,16.60
2022-10-18T00:24:33.796Z,16.60
2022-10-18T00:27:02.268Z,16.60
2022-10-18T00:29:30.884Z,16.60
2022-10-18T00:32:00.767Z,16.50
2022-10-18T00:34:29.316Z,16.50
2022-10-18T00:36:57.906Z,16.50
2022-10-18T00:39:26.500Z,16.50
2022-10-18T00:41:55.101Z,16.50
2022-10-18T00:45:11.042Z,16.50
2022-10-18T00:47:41.145Z,16.40
2022-10-18T00:50:10.544Z,16.40
2022-10-18T00:52:43.944Z,16.40
2022-10-18T00:55:13.167Z,16.40
2022-10-18T00:57:44.336Z,16.40
2022-10-18T01:00:14.706Z,16.30
2022-10-18T01:02:47.210Z,16.30
2022-10-18T01:05:18.576Z,16.30
2022-10-18T01:08:23.780Z,16.30
2022-10-18T01:11:07.639Z,16.20
2022-10-18T01:14:01.201Z,16.20
2022-10-18T01:16:38.959Z,16.20
2022-10-18T01:19:45.065Z,16.20
2022-10-18T01:22:22.492Z,16.20
2022-10-18T01:25:07.601Z,16.10
2022-10-18T01:27:58.613Z,16.10
2022-10-18T01:30:53.831Z,16.10
2022-10-18T01:33:32.704Z,16.10
2022-10-18T01:36:07.263Z,16.10
2022-10-18T01:38:38.182Z,16.10
2022-10-18T01:41:13.147Z,16.00
2022-10-18T01:43:45.978Z,16.00
2022-10-18T01:46:18.568Z,16.00
2022-10-18T01:48:48.353Z,16.00
2022-10-18T01:51:20.020Z,16.00
2022-10-18T01:53:48.607Z,15.90
2022-10-18T01:56:25.892Z,15.90
2022-10-18T01:59:15.721Z,15.90
2022-10-18T02:01:56.228Z,15.90
2022-10-18T02:04:35.878Z,15.80
2022-10-18T02:07:16.388Z,15.80
2022-10-18T02:09:52.379Z,15.80
2022-10-18T02:12:23.024Z,15.80
2022-10-18T02:14:53.355Z,15.80
2022-10-18T02:17:24.792Z,15.80
2022-10-18T02:19:55.380Z,15.70
2022-10-18T02:22:26.102Z,15.70
2022-10-18T02:24:57.787Z,15.70
2022-10-18T02:27:26.884Z,15.70
2022-10-18T02:29:55.731Z,15.70
2022-10-18T02:32:33.970Z,15.70
2022-10-18T02:35:08.319Z,15.60
2022-10-18T02:37:40.695Z,15.60
2022-10-18T02:40:11.784Z,15.60
2022-10-18T02:42:46.030Z,15.60
2022-10-18T02:45:15.513Z,15.60
2022-10-18T02:47:45.518Z,15.60
2022-10-18T02:50:14.187Z,15.60
2022-10-18T02:52:42.742Z,15.50
2022-10-18T02:55:12.125Z,15.50
2022-10-18T02:57:40.759Z,15.50
2022-10-18T03:00:11.347Z,15.50
2022-10-18T03:02:39.877Z,15.50
2022-10-18T03:05:10.189Z,15.50
2022-10-18T03:07:38.755Z,15.50
2022-10-18T03:10:08.811Z,15.50
2022-10-18T03:12:37.690Z,15.40
2022-10-18T03:15:07.463Z,15.40
2022-10-18T03:17:35.985Z,15.40
2022-10-18T03:20:04.758Z,15.40
2022-10-18T03:22:34.745Z,15.40
2022-10-18T03:25:03.249Z,15.40
2022-10-18T03:27:32.103Z,15.30
2022-10-18T03:30:01.038Z,15.30
2022-10-18T03:32:29.797Z,15.30
2022-10-18T03:34:58.474Z,15.30
2022-10-18T03:37:27.124Z,15.30
2022-10-18T03:39:56.991Z,15.20
2022-10-18T03:42:25.512Z,15.20
2022-10-18T03:44:54.096Z,15.20
2022-10-18T03:47:22.637Z,15.20
2022-10-18T03:49:54.601Z,15.20
2022-10-18T03:52:25.752Z,15.10
2022-10-18T03:54:54.272Z,15.10
2022-10-18T03:57:24.173Z,15.10
2022-10-18T03:59:52.779Z,15.10
2022-10-18T04:02:21.279Z,15.10
2022-10-18T04:04:49.792Z,15.10
2022-10-18T04:07:18.514Z,15.10
2022-10-18T04:09:47.073Z,15.10
2022-10-18T04:12:15.597Z,15.10
2022-10-18T04:14:45.531Z,15.10
2022-10-18T04:17:14.055Z,15.10
2022-10-18T04:19:42.585Z,15.10
2022-10-18T04:22:12.042Z,15.10
2022-10-18T04:24:40.598Z,15.10
2022-10-18T04:27:09.587Z,15.10
2022-10-18T04:29:38.134Z,15.10
2022-10-18T04:32:08.333Z,15.10
2022-10-18T04:34:37.066Z,15.10
2022-10-18T04:37:05.695Z,15.10
2022-10-18T04:39:34.192Z,15.10
2022-10-18T04:42:02.766Z,15.10
2022-10-18T04:44:31.312Z,15.10
2022-10-18T04:46:59.815Z,15.10
2022-10-18T04:49:29.655Z,15.10
2022-10-18T04:51:58.222Z,15.10
2022-10-18T04:54:28.623Z,15.10
2022-10-18T04:56:57.275Z,15.10
2022-10-18T04:59:25.935Z,15.10
2022-10-18T05:01:54.822Z,15.10
2022-10-18T05:04:23.504Z,15.10
2022-10-18T05:06:53.447Z,15.20
2022-10-18T05:09:24.775Z,15.20
2022-10-18T05:11:53.420Z,15.20
2022-10-18T05:14:21.956Z,15.20
2022-10-18T05:16:50.525Z,15.20
2022-10-18T05:19:19.172Z,15.20
2022-10-18T05:21:47.704Z,15.20
2022-10-18T05:24:17.676Z,15.20
2022-10-18T05:26:46.481Z,15.20
2022-10-18T05:29:15.085Z,15.20
2022-10-18T05:31:43.755Z,15.20
2022-10-18T05:34:12.356Z,15.20
2022-10-18T05:36:40.900Z,15.20
2022-10-18T05:39:09.585Z,15.20
2022-10-18T05:41:39.573Z,15.20
2022-10-18T05:44:08.857Z,15.20
2022-10-18T05:46:37.376Z,15.30
2022-10-18T05:49:05.980Z,15.20
2022-10-18T05:51:34.506Z,15.30
2022-10-18T05:54:03.030Z,15.30
2022-10-18T05:56:31.653Z,15.30
2022-10-18T05:59:03.046Z,15.30
2022-10-18T06:01:31.670Z,15.30
2022-10-18T06:04:00.221Z,15.30
2022-10-18T06:06:28.833Z,15.30
2022-10-18T06:08:57.436Z,15.30
2022-10-18T06:11:26.207Z,15.30
2022-10-18T06:13:54.915Z,15.30
2022-10-18T06:16:32.048Z,15.30
2022-10-18T06:19:01.263Z,15.30
2022-10-18T06:21:29.938Z,15.30
2022-10-18T06:24:00.441Z,15.40
2022-10-18T06:26:29.786Z,15.40
2022-10-18T06:28:58.418Z,15.40
2022-10-18T06:31:28.557Z,15.40
2022-10-18T06:33:58.480Z,15.40
2022-10-18T06:36:27.160Z,15.50
2022-10-18T06:38:56.605Z,15.50
2022-10-18T06:41:25.339Z,15.50
2022-10-18T06:43:57.793Z,15.60
2022-10-18T06:46:28.050Z,15.60
2022-10-18T06:48:57.685Z,15.60
2022-10-18T06:51:26.200Z,15.60
2022-10-18T06:54:06.212Z,15.70
2022-10-18T06:56:43.257Z,15.70
2022-10-18T06:59:11.801Z,15.70
2022-10-18T07:01:41.810Z,15.80
2022-10-18T07:04:10.440Z,15.80
2022-10-18T07:06:38.998Z,15.80
2022-10-18T07:09:07.817Z,15.90
2022-10-18T07:11:36.814Z,15.90
2022-10-18T07:14:05.720Z,15.90
2022-10-18T07:16:35.425Z,16.00
2022-10-18T07:19:05.609Z,16.00
2022-10-18T07:21:34.333Z,16.00
2022-10-18T07:24:02.891Z,16.10
2022-10-18T07:26:33.868Z,16.10
2022-10-18T07:29:07.302Z,16.10
2022-10-18T07:31:38.459Z,16.20
2022-10-18T07:34:11.301Z,16.20
2022-10-18T07:36:59.973Z,16.20
2022-10-18T07:39:28.514Z,16.30
2022-10-18T07:41:57.114Z,16.30
2022-10-18T07:44:26.049Z,16.40
2022-10-18T07:46:55.101Z,16.40
2022-10-18T07:49:25.396Z,16.40
2022-10-18T07:51:53.889Z,16.40
2022-10-18T07:54:22.891Z,16.50
2022-10-18T07:56:51.474Z,16.50
2022-10-18T07:59:19.982Z,16.50
2022-10-18T08:01:48.586Z,16.50
2022-10-18T08:04:17.227Z,16.60
2022-10-18T08:06:47.766Z,16.70
2022-10-18T08:09:16.286Z,16.70
2022-10-18T08:11:44.935Z,16.70
2022-10-18T08:14:13.441Z,16.70
2022-10-18T08:16:41.977Z,16.80
2022-10-18T08:19:10.554Z,16.80
2022-10-18T08:21:39.051Z,16.90
2022-10-18T08:24:09.047Z,17.00
2022-10-18T08:26:37.751Z,17.00
2022-10-18T08:29:24.823Z,17.10
2022-10-18T08:31:54.845Z,17.20
2022-10-18T08:34:23.605Z,17.20
2022-10-18T08:36:52.160Z,17.30
2022-10-18T08:39:22.117Z,17.40
2022-10-18T08:42:36.493Z,17.50
2022-10-18T08:45:12.891Z,17.50
2022-10-18T08:47:53.890Z,17.60
2022-10-18T08:50:26.382Z,17.80
2022-10-18T08:53:00.500Z,17.80
2022-10-18T08:55:36.428Z,18.00
2022-10-18T08:58:06.130Z,18.00
2022-10-18T09:00:41.928Z,18.10
2022-10-18T09:03:32.926Z,18.20
2022-10-18T09:06:13.938Z,18.30
2022-10-18T09:09:02.722Z,18.40
2022-10-18T09:12:04.506Z,18.50
2022-10-18T09:15:06.050Z,18.70
2022-10-18T09:17:50.587Z,18.80
2022-10-18T09:20:25.211Z,18.80
2022-10-18T09:22:58.244Z,19.00
2022-10-18T09:25:33.173Z,19.00
2022-10-18T09:28:17.421Z,19.10
2022-10-18T09:30:57.237Z,19.20
2022-10-18T09:33:46.653Z,19.40
2022-10-18T09:36:20.586Z,19.50
2022-10-18T09:38:56.112Z,19.50
2022-10-18T09:41:33.363Z,19.70
2022-10-18T09:44:26.937Z,19.80
2022-10-18T09:47:01.857Z,20.00
2022-10-18T09:49:34.603Z,20.00
2022-10-18T09:52:12.659Z,20.20
2022-10-18T09:54:47.789Z,20.30
2022-10-18T09:57:23.056Z,20.50
2022-10-18T09:59:53.054Z,20.60
2022-10-18T10:02:24.635Z,20.70
2022-10-18T10:04:55.827Z,20.80
2022-10-18T10:07:31.049Z,21.00
2022-10-18T10:10:09.945Z,21.10
2022-10-18T10:12:40.451Z,21.20
2022-10-18T10:15:19.967Z,21.40
2022-10-18T10:17:57.687Z,21.50
2022-10-18T10:20:35.723Z,21.60
2022-10-18T10:23:10.929Z,21.70
2022-10-18T10:25:40.957Z,21.90
2022-10-18T10:28:15.896Z,21.90
2022-10-18T10:30:46.042Z,22.00
2022-10-18T10:33:34.334Z,22.10
2022-10-18T10:36:07.007Z,22.20
2022-10-18T10:38:35.563Z,22.30
2022-10-18T10:41:25.627Z,22.30
2022-10-18T10:43:54.467Z,22.30
2022-10-18T10:46:26.456Z,22.40
2022-10-18T10:49:21.648Z,22.40
2022-10-18T10:52:02.524Z,22.40
2022-10-18T10:54:39.213Z,22.50
2022-10-18T10:57:21.165Z,22.50
2022-10-18T10:59:53.343Z,22.50
2022-10-18T11:02:27.929Z,22.50
2022-10-18T11:04:58.173Z,22.50
2022-10-18T11:07:35.798Z,22.50
2022-10-18T11:10:09.478Z,22.50
2022-10-18T11:12:41.170Z,22.50
2022-10-18T11:15:26.094Z,22.50
2022-10-18T11:18:09.156Z,22.50
2022-10-18T11:20:43.593Z,22.50
2022-10-18T11:23:13.980Z,22.50
2022-10-18T11:26:07.572Z,22.50
2022-10-18T11:28:58.645Z,22.50
2022-10-18T11:31:34.434Z,22.40
2022-10-18T11:34:30.093Z,22.40
2022-10-18T11:37:27.130Z,22.40
2022-10-18T11:40:08.686Z,22.30
2022-10-18T11:42:49.108Z,22.20
2022-10-18T11:45:32.232Z,22.20
2022-10-18T11:48:09.551Z,22.10
2022-10-18T11:50:46.369Z,22.00
2022-10-18T11:53:25.881Z,22.00
2022-10-18T11:56:04.708Z,21.90
2022-10-18T11:58:59.290Z,21.90
2022-10-18T12:01:35.804Z,21.80
2022-10-18T12:04:10.284Z,21.80
2022-10-18T12:06:43.423Z,21.70
2022-10-18T12:09:21.019Z,21.70
2022-10-18T12:11:55.989Z,21.60
2022-10-18T12:14:29.564Z,21.50
2022-10-18T12:19:55.942Z,21.40
2022-10-18T12:22:34.654Z,21.30
2022-10-18T12:25:04.252Z,21.20
2022-10-18T12:27:44.905Z,21.20
2022-10-18T12:30:23.743Z,21.10
2022-10-18T12:33:03.737Z,21.00
2022-10-18T12:35:58.095Z,21.00
2022-10-18T12:38:32.305Z,20.90
2022-10-18T12:41:01.473Z,20.90
2022-10-18T12:43:36.774Z,20.80
2022-10-18T12:46:13.349Z,20.80
2022-10-18T12:48:45.711Z,20.70
2022-10-18T12:51:17.166Z,20.70
2022-10-18T12:53:50.708Z,20.60
2022-10-18T12:56:41.831Z,20.60
2022-10-18T12:59:49.763Z,20.60
2022-10-18T13:02:31.911Z,20.50
2022-10-18T13:05:02.476Z,20.50
2022-10-18T13:07:44.716Z,20.50
2022-10-18T13:10:38.464Z,20.40
2022-10-18T13:13:39.719Z,20.40
2022-10-18T13:16:32.947Z,20.30
2022-10-18T13:19:16.809Z,20.30
2022-10-18T13:21:54.791Z,20.20
2022-10-18T13:24:35.289Z,20.20
2022-10-18T13:27:39.729Z,20.10
2022-10-18T13:30:34.450Z,20.10
2022-10-18T13:33:25.978Z,20.00
2022-10-18T13:35:57.180Z,20.00
2022-10-18T13:38:50.507Z,19.90
2022-10-18T13:41:22.156Z,19.90
2022-10-18T13:44:30.588Z,19.90
2022-10-18T13:47:37.309Z,19.90
2022-10-18T13:50:26.209Z,19.90
2022-10-18T13:53:16.135Z,19.80
2022-10-18T13:55:57.946Z,19.80
2022-10-18T13:58:48.845Z,19.80
2022-10-18T14:01:35.728Z,19.80
2022-10-18T14:05:16.551Z,19.80
2022-10-18T14:07:51.921Z,19.80
2022-10-18T14:10:43.638Z,19.90
2022-10-18T14:13:22.619Z,19.80
2022-10-18T14:15:54.433Z,19.80
2022-10-18T14:18:31.854Z,19.80
2022-10-18T14:21:13.704Z,19.80
2022-10-18T14:23:46.034Z,19.80
2022-10-18T14:26:18.220Z,19.80
2022-10-18T14:28:59.557Z,19.80
2022-10-18T14:31:29.017Z,19.80
2022-10-18T14:33:59.941Z,19.80
2022-10-18T14:36:32.584Z,19.80
2022-10-18T14:39:03.156Z,19.80
2022-10-18T14:41:33.858Z,19.80
2022-10-18T14:44:21.474Z,19.80
2022-10-18T14:46:53.104Z,19.80
2022-10-18T14:49:23.180Z,19.80
2022-10-18T14:51:54.388Z,19.80
2022-10-18T14:54:30.748Z,19.80
2022-10-18T14:57:01.223Z,19.80
2022-10-18T14:59:33.341Z,19.80
2022-10-18T15:02:06.137Z,19.80
2022-10-18T15:04:36.105Z,19.80
2022-10-18T15:07:07.341Z,19.80
2022-10-18T15:09:59.547Z,19.80
2022-10-18T15:12:36.876Z,19.80
2022-10-18T15:15:21.581Z,19.80
2022-10-18T15:17:51.467Z,19.80
2022-10-18T15:20:25.945Z,19.70
2022-10-18T15:22:55.356Z,19.70
2022-10-18T15:25:31.540Z,19.70
2022-10-18T15:28:02.556Z,19.70
2022-10-18T15:30:39.343Z,19.70
2022-10-18T15:33:10.087Z,19.70
2022-10-18T15:35:40.983Z,19.70
2022-10-18T15:38:17.444Z,19.70
2022-10-18T15:40:46.077Z,19.70
2022-10-18T15:43:37.994Z,19.60
2022-10-18T15:46:07.657Z,19.60
2022-10-18T15:48:38.755Z,19.60
2022-10-18T15:51:11.103Z,19.60
2022-10-18T15:53:52.802Z,19.60
2022-10-18T15:56:33.608Z,19.60
2022-10-18T15:59:04.994Z,19.50
2022-10-18T16:01:38.206Z,19.50
2022-10-18T16:04:12.329Z,19.50
2022-10-18T16:06:42.280Z,19.40
2022-10-18T16:09:17.704Z,19.40
2022-10-18T16:11:47.061Z,19.40
2022-10-18T16:14:15.582Z,19.40
2022-10-18T16:16:44.248Z,19.40
2022-10-18T16:19:18.725Z,19.30
2022-10-18T16:21:48.648Z,19.30
2022-10-18T16:24:17.415Z,19.30
2022-10-18T16:26:46.069Z,19.30
2022-10-18T16:29:16.401Z,19.30
2022-10-18T16:31:46.694Z,19.30
2022-10-18T16:34:15.304Z,19.30
2022-10-18T16:36:43.860Z,19.20
2022-10-18T16:39:18.047Z,19.20
2022-10-18T16:41:46.986Z,19.20
2022-10-18T16:44:16.498Z,19.20
2022-10-18T16:46:45.456Z,19.10
2022-10-18T16:49:23.160Z,19.10
2022-10-18T16:51:52.148Z,19.10
2022-10-18T16:54:22.376Z,19.10
2022-10-18T16:56:51.231Z,19.10
2022-10-18T16:59:25.510Z,19.10
2022-10-18T17:01:54.119Z,19.10
2022-10-18T17:04:22.751Z,19.00
2022-10-18T17:06:51.699Z,19.00
2022-10-18T17:09:21.617Z,19.00
2022-10-18T17:11:50.886Z,19.00
2022-10-18T17:14:19.394Z,19.00
2022-10-18T17:16:50.798Z,18.90
2022-10-18T17:19:23.337Z,18.90
2022-10-18T17:21:51.814Z,18.90
2022-10-18T17:24:21.696Z,18.90
2022-10-18T17:26:50.264Z,18.90
2022-10-18T17:29:18.768Z,18.80
2022-10-18T17:31:47.272Z,18.80
2022-10-18T17:34:21.247Z,18.80
2022-10-18T17:36:50.122Z,18.80
2022-10-18T17:39:18.766Z,18.80
2022-10-18T17:41:48.577Z,18.80
2022-10-18T17:44:17.170Z,18.70
2022-10-18T17:46:45.712Z,18.80
2022-10-18T17:49:15.543Z,18.80
2022-10-18T17:51:45.468Z,18.80
2022-10-18T17:54:14.193Z,18.80
2022-10-18T17:56:42.667Z,18.80
2022-10-18T17:59:12.863Z,18.80
2022-10-18T18:02:01.804Z,18.70
2022-10-18T18:04:30.311Z,18.70
2022-10-18T18:06:59.754Z,18.70
2022-10-18T18:09:28.403Z,18.70
2022-10-18T18:11:56.904Z,18.70
2022-10-18T18:14:27.057Z,18.70
2022-10-18T18:16:55.574Z,18.70
2022-10-18T18:19:24.962Z,18.70
2022-10-18T18:21:55.115Z,18.70
2022-10-18T18:24:24.830Z,18.70
2022-10-18T18:26:54.416Z,18.70
2022-10-18T18:29:23.935Z,18.70
2022-10-18T18:31:54.775Z,18.70
2022-10-18T18:34:23.388Z,18.70
2022-10-18T18:36:52.313Z,18.70
2022-10-18T18:39:24.576Z,18.70
2022-10-18T18:41:54.150Z,18.70
2022-10-18T18:44:24.584Z,18.60
2022-10-18T18:46:54.564Z,18.60
2022-10-18T18:49:23.256Z,18.60
2022-10-18T18:51:51.804Z,18.60
2022-10-18T18:54:22.031Z,18.50
2022-10-18T18:56:50.888Z,18.50
2022-10-18T18:59:20.181Z,18.50
2022-10-18T19:01:48.802Z,18.50
2022-10-18T19:04:18.945Z,18.50
2022-10-18T19:06:47.558Z,18.50
2022-10-18T19:09:22.260Z,18.50
2022-10-18T19:11:53.589Z,18.40
2022-10-18T19:14:23.955Z,18.40
2022-10-18T19:16:54.408Z,18.40
2022-10-18T19:19:26.867Z,18.40
2022-10-18T19:21:57.415Z,18.40
2022-10-18T19:24:28.848Z,18.40
2022-10-18T19:27:00.236Z,18.40
2022-10-18T19:29:31.625Z,18.40
2022-10-18T19:32:03.868Z,18.40
2022-10-18T19:34:34.962Z,18.40
2022-10-18T19:37:03.715Z,18.40
2022-10-18T19:39:35.524Z,18.30
2022-10-18T19:42:08.971Z,18.30
2022-10-18T19:44:38.720Z,18.40
2022-10-18T19:47:09.453Z,18.30
2022-10-18T19:49:40.445Z,18.40
2022-10-18T19:52:13.613Z,18.30
2022-10-18T19:54:43.230Z,18.30
2022-10-18T19:57:12.039Z,18.30
2022-10-18T20:02:15.511Z,18.40
2022-10-18T20:04:45.356Z,18.40
2022-10-18T20:07:13.902Z,18.40
2022-10-18T20:09:42.422Z,18.40
2022-10-18T20:12:10.972Z,18.30
2022-10-18T20:14:39.520Z,18.40
2022-10-18T20:17:12.091Z,18.40
2022-10-18T20:19:42.177Z,18.40
2022-10-18T20:22:12.369Z,18.30
2022-10-18T20:24:41.210Z,18.40
2022-10-18T20:27:09.775Z,18.30
2022-10-18T20:29:38.453Z,18.30
2022-10-18T20:32:08.949Z,18.30
2022-10-18T20:34:37.483Z,18.30
2022-10-18T20:37:06.007Z,18.30
2022-10-18T20:39:35.933Z,18.30
2022-10-18T20:42:08.418Z,18.30
2022-10-18T20:44:40.952Z,18.30
2022-10-18T20:47:10.216Z,18.30
2022-10-18T20:49:41.343Z,18.30
2022-10-18T20:52:10.743Z,18.30
2022-10-18T20:54:41.416Z,18.30
2022-10-18T20:57:11.567Z,18.30
2022-10-18T20:59:40.780Z,18.30
2022-10-18T21:02:11.076Z,18.30
2022-10-18T21:04:41.540Z,18.30
2022-10-18T21:07:11.811Z,18.20
2022-10-18T21:09:42.566Z,18.20
2022-10-18T21:14:44.756Z,18.20
2022-10-18T21:17:13.347Z,18.20
2022-10-18T21:19:42.216Z,18.20
2022-10-18T21:22:11.765Z,18.20
2022-10-18T21:24:42.509Z,18.20
2022-10-18T21:27:11.008Z,18.20
2022-10-18T21:29:40.058Z,18.10
2022-10-18T21:32:08.959Z,18.10
2022-10-18T21:34:37.641Z,18.10
2022-10-18T21:37:06.224Z,18.10
2022-10-18T21:39:34.899Z,18.10
2022-10-18T21:42:04.855Z,18.10
2022-10-18T21:44:34.129Z,18.10
2022-10-18T21:47:02.847Z,18.10
2022-10-18T21:49:35.136Z,18.00
2022-10-18T21:52:05.425Z,18.00
2022-10-18T21:54:34.295Z,18.00
2022-10-18T21:57:04.212Z,18.00
2022-10-18T21:59:32.781Z,18.00
2022-10-18T22:02:03.079Z,17.90
2022-10-18T22:04:35.721Z,18.00
2022-10-18T22:07:05.492Z,18.00
2022-10-18T22:09:34.786Z,18.00
2022-10-18T22:12:04.972Z,17.90
2022-10-18T22:14:33.508Z,17.90
2022-10-18T22:17:02.842Z,17.90
2022-10-18T22:19:31.556Z,17.90
2022-10-18T22:22:00.120Z,17.90
2022-10-18T22:24:28.641Z,17.90
2022-10-18T22:26:57.330Z,17.90
2022-10-18T22:29:27.546Z,17.90
2022-10-18T22:31:56.414Z,17.90
2022-10-18T22:34:27.830Z,17.80
2022-10-18T22:36:57.988Z,17.80
2022-10-18T22:39:26.572Z,17.80
2022-10-18T22:41:56.671Z,17.80
2022-10-18T22:44:26.645Z,17.80
2022-10-18T22:46:55.164Z,17.80
2022-10-18T22:49:23.679Z,17.80
2022-10-18T22:51:52.316Z,17.80
2022-10-18T22:54:20.938Z,17.80
2022-10-18T22:56:49.428Z,17.80
2022-10-18T22:59:17.960Z,17.80
2022-10-18T23:01:48.236Z,17.80
2022-10-18T23:04:16.721Z,17.80
2022-10-18T23:06:45.316Z,17.70
2022-10-18T23:09:13.836Z,17.70
2022-10-18T23:11:42.681Z,17.70
2022-10-18T23:14:12.292Z,17.90
2022-10-18T23:16:40.816Z,17.70
2022-10-18T23:19:16.535Z,17.70
2022-10-18T23:21:45.154Z,17.70
2022-10-18T23:24:13.668Z,17.70
2022-10-18T23:26:42.204Z,17.70
2022-10-18T23:29:10.860Z,17.70
2022-10-18T23:31:40.008Z,17.70
2022-10-18T23:34:10.565Z,17.60
2022-10-18T23:36:39.230Z,17.60
2022-10-18T23:39:08.040Z,17.60
2022-10-18T23:41:36.773Z,17.60
2022-10-18T23:44:05.831Z,17.60
2022-10-18T23:46:34.352Z,17.50
2022-10-18T23:49:02.872Z,17.50
2022-10-18T23:51:32.816Z,17.50
2022-10-18T23:54:01.306Z,17.50
2022-10-18T23:56:29.805Z,17.50
2022-10-18T23:58:58.438Z,17.50
